sensor_id;sensor_type;location;lat;lon;timestamp;temperature;humidity
6252;DHT22;3159;52.414;9.784;2023-12-29T00:02:30;10.80;99.90
6252;DHT22;3159;52.414;9.784;2023-12-29T00:04:57;10.80;99.90
6252;DHT22;3159;52.414;9.784;2023-12-29T00:07:24;10.80;99.90
6252;DHT22;3159;52.414;9.784;2023-12-29T00:09:50;10.90;99.90
6252;DHT22;3159;52.414;9.784;2023-12-29T00:12:19;10.90;99.90
6252;DHT22;3159;52.414;9.784;2023-12-29T00:14:46;10.90;99.90
6252;DHT22;3159;52.414;9.784;2023-12-29T00:17:13;10.80;99.90
6252;DHT22;3159;52.414;9.784;2023-12-29T00:19:39;10.90;99.90
6252;DHT22;3159;52.414;9.784;2023-12-29T00:22:06;10.90;99.90
6252;DHT22;3159;52.414;9.784;2023-12-29T00:24:33;10.90;99.90
6252;DHT22;3159;52.414;9.784;2023-12-29T00:27:01;10.90;99.90
6252;DHT22;3159;52.414;9.784;2023-12-29T00:29:31;10.90;99.90
6252;DHT22;3159;52.414;9.784;2023-12-29T00:31:59;10.90;99.90
6252;DHT22;3159;52.414;9.784;2023-12-29T00:34:27;10.80;99.90
6252;DHT22;3159;52.414;9.784;2023-12-29T00:36:54;10.90;99.90
6252;DHT22;3159;52.414;9.784;2023-12-29T00:39:21;10.80;99.90
6252;DHT22;3159;52.414;9.784;2023-12-29T00:41:54;10.80;99.90
6252;DHT22;3159;52.414;9.784;2023-12-29T00:44:21;10.90;99.90
6252;DHT22;3159;52.414;9.784;2023-12-29T00:46:50;10.90;99.90
6252;DHT22;3159;52.414;9.784;2023-12-29T00:49:17;10.90;99.90
6252;DHT22;3159;52.414;9.784;2023-12-29T00:51:44;10.90;99.90
6252;DHT22;3159;52.414;9.784;2023-12-29T00:54:11;10.90;99.90
6252;DHT22;3159;52.414;9.784;2023-12-29T00:56:38;10.90;99.90
6252;DHT22;3159;52.414;9.784;2023-12-29T00:59:05;10.90;99.90
6252;DHT22;3159;52.414;9.784;2023-12-29T01:01:33;11.00;99.90
6252;DHT22;3159;52.414;9.784;2023-12-29T01:04:02;10.90;99.90
6252;DHT22;3159;52.414;9.784;2023-12-29T01:06:30;10.90;99.90
6252;DHT22;3159;52.414;9.784;2023-12-29T01:08:57;10.90;99.90
6252;DHT22;3159;52.414;9.784;2023-12-29T01:11:23;11.00;99.90
6252;DHT22;3159;52.414;9.784;2023-12-29T01:13:50;10.90;99.90
6252;DHT22;3159;52.414;9.784;2023-12-29T01:16:17;10.90;99.90
6252;DHT22;3159;52.414;9.784;2023-12-29T01:18:45;10.90;99.90
6252;DHT22;3159;52.414;9.784;2023-12-29T01:21:13;11.00;99.90
6252;DHT22;3159;52.414;9.784;2023-12-29T01:23:40;10.90;99.90
6252;DHT22;3159;52.414;9.784;2023-12-29T01:26:07;10.90;99.90
6252;DHT22;3159;52.414;9.784;2023-12-29T01:28:34;11.00;99.90
6252;DHT22;3159;52.414;9.784;2023-12-29T01:31:01;10.90;99.90
6252;DHT22;3159;52.414;9.784;2023-12-29T01:33:30;10.90;99.90
6252;DHT22;3159;52.414;9.784;2023-12-29T01:35:57;10.90;99.90
6252;DHT22;3159;52.414;9.784;2023-12-29T01:38:26;10.90;99.90
6252;DHT22;3159;52.414;9.784;2023-12-29T01:40:54;11.00;99.90
6252;DHT22;3159;52.414;9.784;2023-12-29T01:43:21;11.00;99.90
6252;DHT22;3159;52.414;9.784;2023-12-29T01:45:47;10.90;99.90
6252;DHT22;3159;52.414;9.784;2023-12-29T01:48:15;10.90;99.90
6252;DHT22;3159;52.414;9.784;2023-12-29T01:50:44;11.00;99.90
6252;DHT22;3159;52.414;9.784;2023-12-29T01:53:12;11.00;99.90
6252;DHT22;3159;52.414;9.784;2023-12-29T01:55:41;11.00;99.90
6252;DHT22;3159;52.414;9.784;2023-12-29T01:58:08;11.00;99.90
6252;DHT22;3159;52.414;9.784;2023-12-29T02:00:35;11.00;99.90
6252;DHT22;3159;52.414;9.784;2023-12-29T02:03:02;10.90;99.90
6252;DHT22;3159;52.414;9.784;2023-12-29T02:05:30;10.90;99.90
6252;DHT22;3159;52.414;9.784;2023-12-29T02:07:59;10.90;99.90
6252;DHT22;3159;52.414;9.784;2023-12-29T02:10:27;10.90;99.90
6252;DHT22;3159;52.414;9.784;2023-12-29T02:12:57;10.90;99.90
6252;DHT22;3159;52.414;9.784;2023-12-29T02:15:26;10.90;99.90
6252;DHT22;3159;52.414;9.784;2023-12-29T02:17:57;10.90;99.90
6252;DHT22;3159;52.414;9.784;2023-12-29T02:20:27;10.90;99.90
6252;DHT22;3159;52.414;9.784;2023-12-29T02:22:54;10.80;99.90
6252;DHT22;3159;52.414;9.784;2023-12-29T02:25:23;10.90;99.90
6252;DHT22;3159;52.414;9.784;2023-12-29T02:27:55;10.90;99.90
6252;DHT22;3159;52.414;9.784;2023-12-29T02:30:27;10.90;99.90
6252;DHT22;3159;52.414;9.784;2023-12-29T02:32:55;10.90;99.90
6252;DHT22;3159;52.414;9.784;2023-12-29T02:35:28;10.90;99.90
6252;DHT22;3159;52.414;9.784;2023-12-29T02:37:57;10.90;99.90
6252;DHT22;3159;52.414;9.784;2023-12-29T02:40:27;10.90;99.90
6252;DHT22;3159;52.414;9.784;2023-12-29T02:42:54;10.90;99.90
6252;DHT22;3159;52.414;9.784;2023-12-29T02:45:21;10.90;99.90
6252;DHT22;3159;52.414;9.784;2023-12-29T02:47:48;10.80;99.90
6252;DHT22;3159;52.414;9.784;2023-12-29T02:50:16;10.80;99.90
6252;DHT22;3159;52.414;9.784;2023-12-29T02:52:43;10.90;99.90
6252;DHT22;3159;52.414;9.784;2023-12-29T02:55:10;10.80;99.90
6252;DHT22;3159;52.414;9.784;2023-12-29T02:57:39;10.90;99.90
6252;DHT22;3159;52.414;9.784;2023-12-29T03:00:06;10.90;99.90
6252;DHT22;3159;52.414;9.784;2023-12-29T03:02:34;10.90;99.90
6252;DHT22;3159;52.414;9.784;2023-12-29T03:05:00;10.90;99.90
6252;DHT22;3159;52.414;9.784;2023-12-29T03:07:28;10.90;99.90
6252;DHT22;3159;52.414;9.784;2023-12-29T03:09:56;11.00;99.90
6252;DHT22;3159;52.414;9.784;2023-12-29T03:12:23;10.90;99.90
6252;DHT22;3159;52.414;9.784;2023-12-29T03:14:51;10.90;99.90
6252;DHT22;3159;52.414;9.784;2023-12-29T03:17:18;10.80;99.90
6252;DHT22;3159;52.414;9.784;2023-12-29T03:19:45;10.80;99.90
6252;DHT22;3159;52.414;9.784;2023-12-29T03:22:12;10.90;99.90
6252;DHT22;3159;52.414;9.784;2023-12-29T03:24:41;10.80;99.90
6252;DHT22;3159;52.414;9.784;2023-12-29T03:27:08;10.80;99.90
6252;DHT22;3159;52.414;9.784;2023-12-29T03:29:35;10.90;99.90
6252;DHT22;3159;52.414;9.784;2023-12-29T03:32:04;10.90;99.90
6252;DHT22;3159;52.414;9.784;2023-12-29T03:34:32;10.90;99.90
6252;DHT22;3159;52.414;9.784;2023-12-29T03:36:59;10.90;99.90
6252;DHT22;3159;52.414;9.784;2023-12-29T03:39:27;10.90;99.90
6252;DHT22;3159;52.414;9.784;2023-12-29T03:41:53;10.90;99.90
6252;DHT22;3159;52.414;9.784;2023-12-29T03:44:20;10.90;99.90
6252;DHT22;3159;52.414;9.784;2023-12-29T03:46:47;11.00;99.90
6252;DHT22;3159;52.414;9.784;2023-12-29T03:49:16;11.00;99.90
6252;DHT22;3159;52.414;9.784;2023-12-29T03:51:44;11.00;99.90
6252;DHT22;3159;52.414;9.784;2023-12-29T03:54:13;11.10;99.90
6252;DHT22;3159;52.414;9.784;2023-12-29T03:56:40;11.00;99.90
6252;DHT22;3159;52.414;9.784;2023-12-29T03:59:07;11.00;99.90
6252;DHT22;3159;52.414;9.784;2023-12-29T04:01:34;11.00;99.90
6252;DHT22;3159;52.414;9.784;2023-12-29T04:04:01;11.00;99.90
6252;DHT22;3159;52.414;9.784;2023-12-29T04:06:30;10.90;99.90
6252;DHT22;3159;52.414;9.784;2023-12-29T04:08:57;11.00;99.90
6252;DHT22;3159;52.414;9.784;2023-12-29T04:11:24;10.90;99.90
6252;DHT22;3159;52.414;9.784;2023-12-29T04:13:53;10.90;99.90
6252;DHT22;3159;52.414;9.784;2023-12-29T04:16:20;10.90;99.90
6252;DHT22;3159;52.414;9.784;2023-12-29T04:18:46;10.80;99.90
6252;DHT22;3159;52.414;9.784;2023-12-29T04:21:14;10.90;99.90
6252;DHT22;3159;52.414;9.784;2023-12-29T04:23:42;10.70;99.90
6252;DHT22;3159;52.414;9.784;2023-12-29T04:26:09;10.70;99.90
6252;DHT22;3159;52.414;9.784;2023-12-29T04:28:36;10.70;99.90
6252;DHT22;3159;52.414;9.784;2023-12-29T04:31:03;10.70;99.90
6252;DHT22;3159;52.414;9.784;2023-12-29T04:33:30;10.70;99.90
6252;DHT22;3159;52.414;9.784;2023-12-29T04:35:57;10.70;99.90
6252;DHT22;3159;52.414;9.784;2023-12-29T04:38:24;10.70;99.90
6252;DHT22;3159;52.414;9.784;2023-12-29T04:40:53;10.70;99.90
6252;DHT22;3159;52.414;9.784;2023-12-29T04:43:20;10.70;99.90
6252;DHT22;3159;52.414;9.784;2023-12-29T04:45:47;10.70;99.90
6252;DHT22;3159;52.414;9.784;2023-12-29T04:48:14;10.70;99.90
6252;DHT22;3159;52.414;9.784;2023-12-29T04:50:41;10.70;99.90
6252;DHT22;3159;52.414;9.784;2023-12-29T04:53:09;10.70;99.90
6252;DHT22;3159;52.414;9.784;2023-12-29T04:55:36;10.70;99.90
6252;DHT22;3159;52.414;9.784;2023-12-29T04:58:04;10.70;99.90
6252;DHT22;3159;52.414;9.784;2023-12-29T05:00:31;10.70;99.90
6252;DHT22;3159;52.414;9.784;2023-12-29T05:02:59;10.60;99.90
6252;DHT22;3159;52.414;9.784;2023-12-29T05:05:26;10.70;99.90
6252;DHT22;3159;52.414;9.784;2023-12-29T05:07:53;10.60;99.90
6252;DHT22;3159;52.414;9.784;2023-12-29T05:10:20;10.60;99.90
6252;DHT22;3159;52.414;9.784;2023-12-29T05:12:47;10.60;99.90
6252;DHT22;3159;52.414;9.784;2023-12-29T05:15:15;10.60;99.90
6252;DHT22;3159;52.414;9.784;2023-12-29T05:17:42;10.50;99.90
6252;DHT22;3159;52.414;9.784;2023-12-29T05:20:10;10.50;99.90
6252;DHT22;3159;52.414;9.784;2023-12-29T05:22:37;10.50;99.90
6252;DHT22;3159;52.414;9.784;2023-12-29T05:25:04;10.50;99.90
6252;DHT22;3159;52.414;9.784;2023-12-29T05:27:31;10.50;99.90
6252;DHT22;3159;52.414;9.784;2023-12-29T05:29:58;10.50;99.90
6252;DHT22;3159;52.414;9.784;2023-12-29T05:32:26;10.50;99.90
6252;DHT22;3159;52.414;9.784;2023-12-29T05:34:54;10.50;99.90
6252;DHT22;3159;52.414;9.784;2023-12-29T05:37:21;10.40;99.90
6252;DHT22;3159;52.414;9.784;2023-12-29T05:39:49;10.50;99.90
6252;DHT22;3159;52.414;9.784;2023-12-29T05:42:16;10.50;99.90
6252;DHT22;3159;52.414;9.784;2023-12-29T05:44:44;10.50;99.90
6252;DHT22;3159;52.414;9.784;2023-12-29T05:47:12;10.50;99.90
6252;DHT22;3159;52.414;9.784;2023-12-29T05:49:40;10.50;99.90
6252;DHT22;3159;52.414;9.784;2023-12-29T05:52:09;10.50;99.90
6252;DHT22;3159;52.414;9.784;2023-12-29T05:54:36;10.50;99.90
6252;DHT22;3159;52.414;9.784;2023-12-29T05:57:03;10.50;99.90
6252;DHT22;3159;52.414;9.784;2023-12-29T05:59:31;10.50;99.90
6252;DHT22;3159;52.414;9.784;2023-12-29T06:01:58;10.50;99.90
6252;DHT22;3159;52.414;9.784;2023-12-29T06:04:25;10.60;99.90
6252;DHT22;3159;52.414;9.784;2023-12-29T06:06:54;10.60;99.90
6252;DHT22;3159;52.414;9.784;2023-12-29T06:09:21;10.60;99.90
6252;DHT22;3159;52.414;9.784;2023-12-29T06:11:49;10.60;99.90
6252;DHT22;3159;52.414;9.784;2023-12-29T06:14:16;10.50;99.90
6252;DHT22;3159;52.414;9.784;2023-12-29T06:16:43;10.50;99.90
6252;DHT22;3159;52.414;9.784;2023-12-29T06:19:10;10.60;99.90
6252;DHT22;3159;52.414;9.784;2023-12-29T06:21:41;10.60;99.90
6252;DHT22;3159;52.414;9.784;2023-12-29T06:24:10;10.60;99.90
6252;DHT22;3159;52.414;9.784;2023-12-29T06:26:37;10.60;99.90
6252;DHT22;3159;52.414;9.784;2023-12-29T06:29:08;10.60;99.90
6252;DHT22;3159;52.414;9.784;2023-12-29T06:31:35;10.60;99.90
6252;DHT22;3159;52.414;9.784;2023-12-29T06:34:06;10.50;99.90
6252;DHT22;3159;52.414;9.784;2023-12-29T06:36:33;10.50;99.90
6252;DHT22;3159;52.414;9.784;2023-12-29T06:39:00;10.50;99.90
6252;DHT22;3159;52.414;9.784;2023-12-29T06:41:29;10.50;99.90
6252;DHT22;3159;52.414;9.784;2023-12-29T06:43:56;10.40;99.90
6252;DHT22;3159;52.414;9.784;2023-12-29T06:46:24;10.40;99.90
6252;DHT22;3159;52.414;9.784;2023-12-29T06:48:52;10.30;99.90
6252;DHT22;3159;52.414;9.784;2023-12-29T06:51:20;10.40;99.90
6252;DHT22;3159;52.414;9.784;2023-12-29T06:53:49;10.40;99.90
6252;DHT22;3159;52.414;9.784;2023-12-29T06:56:17;10.50;99.90
6252;DHT22;3159;52.414;9.784;2023-12-29T06:58:47;10.40;99.90
6252;DHT22;3159;52.414;9.784;2023-12-29T07:01:15;10.30;99.90
6252;DHT22;3159;52.414;9.784;2023-12-29T07:03:42;10.30;99.90
6252;DHT22;3159;52.414;9.784;2023-12-29T07:06:09;10.30;99.90
6252;DHT22;3159;52.414;9.784;2023-12-29T07:08:37;10.30;99.90
6252;DHT22;3159;52.414;9.784;2023-12-29T07:11:04;10.30;99.90
6252;DHT22;3159;52.414;9.784;2023-12-29T07:13:31;10.30;99.90
6252;DHT22;3159;52.414;9.784;2023-12-29T07:15:59;10.30;99.90
6252;DHT22;3159;52.414;9.784;2023-12-29T07:18:27;10.30;99.90
6252;DHT22;3159;52.414;9.784;2023-12-29T07:20:55;10.30;99.90
6252;DHT22;3159;52.414;9.784;2023-12-29T07:23:22;10.20;99.90
6252;DHT22;3159;52.414;9.784;2023-12-29T07:25:49;10.20;99.90
6252;DHT22;3159;52.414;9.784;2023-12-29T07:28:16;10.30;99.90
6252;DHT22;3159;52.414;9.784;2023-12-29T07:30:43;10.30;99.90
6252;DHT22;3159;52.414;9.784;2023-12-29T07:33:12;10.30;99.90
6252;DHT22;3159;52.414;9.784;2023-12-29T07:35:39;10.30;99.90
6252;DHT22;3159;52.414;9.784;2023-12-29T07:38:06;10.40;99.90
6252;DHT22;3159;52.414;9.784;2023-12-29T07:40:35;10.40;99.90
6252;DHT22;3159;52.414;9.784;2023-12-29T07:43:03;10.30;99.90
6252;DHT22;3159;52.414;9.784;2023-12-29T07:45:30;10.40;99.90
6252;DHT22;3159;52.414;9.784;2023-12-29T07:47:57;10.40;99.90
6252;DHT22;3159;52.414;9.784;2023-12-29T07:50:26;10.40;99.90
6252;DHT22;3159;52.414;9.784;2023-12-29T07:52:54;10.40;99.90
6252;DHT22;3159;52.414;9.784;2023-12-29T07:55:21;10.50;99.90
6252;DHT22;3159;52.414;9.784;2023-12-29T07:57:48;10.40;99.90
6252;DHT22;3159;52.414;9.784;2023-12-29T08:00:17;10.50;99.90
6252;DHT22;3159;52.414;9.784;2023-12-29T08:02:44;10.50;99.90
6252;DHT22;3159;52.414;9.784;2023-12-29T08:05:11;10.40;99.90
6252;DHT22;3159;52.414;9.784;2023-12-29T08:07:41;10.50;99.90
6252;DHT22;3159;52.414;9.784;2023-12-29T08:10:10;10.50;99.90
6252;DHT22;3159;52.414;9.784;2023-12-29T08:12:37;10.50;99.90
6252;DHT22;3159;52.414;9.784;2023-12-29T08:15:04;10.50;99.90
6252;DHT22;3159;52.414;9.784;2023-12-29T08:17:32;10.50;99.90
6252;DHT22;3159;52.414;9.784;2023-12-29T08:19:59;10.50;99.90
6252;DHT22;3159;52.414;9.784;2023-12-29T08:22:29;10.50;99.90
6252;DHT22;3159;52.414;9.784;2023-12-29T08:24:59;10.50;99.90
6252;DHT22;3159;52.414;9.784;2023-12-29T08:27:26;10.60;99.90
6252;DHT22;3159;52.414;9.784;2023-12-29T08:29:53;10.60;99.90
6252;DHT22;3159;52.414;9.784;2023-12-29T08:32:20;10.70;99.90
6252;DHT22;3159;52.414;9.784;2023-12-29T08:34:48;10.60;99.90
6252;DHT22;3159;52.414;9.784;2023-12-29T08:37:15;10.60;99.90
6252;DHT22;3159;52.414;9.784;2023-12-29T08:39:46;10.60;99.90
6252;DHT22;3159;52.414;9.784;2023-12-29T08:42:15;10.70;99.90
6252;DHT22;3159;52.414;9.784;2023-12-29T08:44:42;10.70;99.90
6252;DHT22;3159;52.414;9.784;2023-12-29T08:47:09;10.70;99.90
6252;DHT22;3159;52.414;9.784;2023-12-29T08:49:37;10.80;99.90
6252;DHT22;3159;52.414;9.784;2023-12-29T08:52:07;10.80;99.90
6252;DHT22;3159;52.414;9.784;2023-12-29T08:54:35;10.80;99.90
6252;DHT22;3159;52.414;9.784;2023-12-29T08:57:03;10.80;99.90
6252;DHT22;3159;52.414;9.784;2023-12-29T08:59:34;10.80;99.90
6252;DHT22;3159;52.414;9.784;2023-12-29T09:02:01;10.80;99.90
6252;DHT22;3159;52.414;9.784;2023-12-29T09:04:28;10.80;99.90
6252;DHT22;3159;52.414;9.784;2023-12-29T09:06:55;10.80;99.90
6252;DHT22;3159;52.414;9.784;2023-12-29T09:09:22;10.80;99.90
6252;DHT22;3159;52.414;9.784;2023-12-29T09:11:49;10.80;99.90
6252;DHT22;3159;52.414;9.784;2023-12-29T09:14:16;10.90;99.90
6252;DHT22;3159;52.414;9.784;2023-12-29T09:16:45;10.90;99.90
6252;DHT22;3159;52.414;9.784;2023-12-29T09:19:12;10.90;99.90
6252;DHT22;3159;52.414;9.784;2023-12-29T09:21:40;10.90;99.90
6252;DHT22;3159;52.414;9.784;2023-12-29T09:24:07;10.90;99.90
6252;DHT22;3159;52.414;9.784;2023-12-29T09:26:34;10.90;99.90
6252;DHT22;3159;52.414;9.784;2023-12-29T09:29:01;10.90;99.90
6252;DHT22;3159;52.414;9.784;2023-12-29T09:31:28;10.90;99.90
6252;DHT22;3159;52.414;9.784;2023-12-29T09:33:57;10.90;99.90
6252;DHT22;3159;52.414;9.784;2023-12-29T09:36:24;10.90;99.90
6252;DHT22;3159;52.414;9.784;2023-12-29T09:38:51;10.90;99.90
6252;DHT22;3159;52.414;9.784;2023-12-29T09:41:20;10.90;99.90
6252;DHT22;3159;52.414;9.784;2023-12-29T09:43:49;11.00;99.90
6252;DHT22;3159;52.414;9.784;2023-12-29T09:46:17;10.90;99.90
6252;DHT22;3159;52.414;9.784;2023-12-29T09:48:46;10.90;99.90
6252;DHT22;3159;52.414;9.784;2023-12-29T09:51:15;10.90;99.90
6252;DHT22;3159;52.414;9.784;2023-12-29T09:53:48;10.80;99.90
6252;DHT22;3159;52.414;9.784;2023-12-29T09:56:15;10.80;99.90
6252;DHT22;3159;52.414;9.784;2023-12-29T09:58:44;10.60;99.90
6252;DHT22;3159;52.414;9.784;2023-12-29T10:01:13;10.50;99.90
6252;DHT22;3159;52.414;9.784;2023-12-29T10:03:41;10.50;99.90
6252;DHT22;3159;52.414;9.784;2023-12-29T10:06:09;10.50;99.90
6252;DHT22;3159;52.414;9.784;2023-12-29T10:08:45;10.40;99.90
6252;DHT22;3159;52.414;9.784;2023-12-29T10:11:14;10.30;99.90
6252;DHT22;3159;52.414;9.784;2023-12-29T10:13:42;10.20;99.90
6252;DHT22;3159;52.414;9.784;2023-12-29T10:16:18;10.20;99.90
6252;DHT22;3159;52.414;9.784;2023-12-29T10:18:59;10.20;99.90
6252;DHT22;3159;52.414;9.784;2023-12-29T10:21:31;10.10;99.90
6252;DHT22;3159;52.414;9.784;2023-12-29T10:24:08;10.10;99.90
6252;DHT22;3159;52.414;9.784;2023-12-29T10:26:37;10.10;99.90
6252;DHT22;3159;52.414;9.784;2023-12-29T10:29:05;10.10;99.90
6252;DHT22;3159;52.414;9.784;2023-12-29T10:31:32;10.00;99.90
6252;DHT22;3159;52.414;9.784;2023-12-29T10:34:17;10.10;99.90
6252;DHT22;3159;52.414;9.784;2023-12-29T10:36:49;10.00;99.90
6252;DHT22;3159;52.414;9.784;2023-12-29T10:39:17;9.90;99.90
6252;DHT22;3159;52.414;9.784;2023-12-29T10:41:44;9.80;99.90
6252;DHT22;3159;52.414;9.784;2023-12-29T10:44:11;9.80;99.90
6252;DHT22;3159;52.414;9.784;2023-12-29T10:46:38;9.80;99.90
6252;DHT22;3159;52.414;9.784;2023-12-29T10:49:09;9.90;99.90
6252;DHT22;3159;52.414;9.784;2023-12-29T10:51:37;9.80;99.90
6252;DHT22;3159;52.414;9.784;2023-12-29T10:54:04;10.00;99.90
6252;DHT22;3159;52.414;9.784;2023-12-29T10:56:34;10.00;99.90
6252;DHT22;3159;52.414;9.784;2023-12-29T10:59:02;10.10;99.90
6252;DHT22;3159;52.414;9.784;2023-12-29T11:01:30;10.20;99.90
6252;DHT22;3159;52.414;9.784;2023-12-29T11:03:58;10.30;99.90
6252;DHT22;3159;52.414;9.784;2023-12-29T11:06:24;10.20;99.90
6252;DHT22;3159;52.414;9.784;2023-12-29T11:08:52;10.20;99.90
6252;DHT22;3159;52.414;9.784;2023-12-29T11:11:19;10.10;99.90
6252;DHT22;3159;52.414;9.784;2023-12-29T11:13:48;10.00;99.90
6252;DHT22;3159;52.414;9.784;2023-12-29T11:16:19;10.00;99.90
6252;DHT22;3159;52.414;9.784;2023-12-29T11:18:49;10.10;99.90
6252;DHT22;3159;52.414;9.784;2023-12-29T11:21:19;10.00;99.90
6252;DHT22;3159;52.414;9.784;2023-12-29T11:23:51;10.10;99.90
6252;DHT22;3159;52.414;9.784;2023-12-29T11:26:23;10.20;99.90
6252;DHT22;3159;52.414;9.784;2023-12-29T11:28:53;10.10;99.90
6252;DHT22;3159;52.414;9.784;2023-12-29T11:31:21;10.20;99.90
6252;DHT22;3159;52.414;9.784;2023-12-29T11:33:52;10.20;99.90
6252;DHT22;3159;52.414;9.784;2023-12-29T11:36:24;10.20;99.90
6252;DHT22;3159;52.414;9.784;2023-12-29T11:38:57;10.20;99.90
6252;DHT22;3159;52.414;9.784;2023-12-29T11:41:30;10.20;99.90
6252;DHT22;3159;52.414;9.784;2023-12-29T11:44:00;10.20;99.90
6252;DHT22;3159;52.414;9.784;2023-12-29T11:46:34;10.30;99.90
6252;DHT22;3159;52.414;9.784;2023-12-29T11:49:01;10.30;99.90
6252;DHT22;3159;52.414;9.784;2023-12-29T11:51:32;10.30;99.90
6252;DHT22;3159;52.414;9.784;2023-12-29T11:53:59;10.30;99.90
6252;DHT22;3159;52.414;9.784;2023-12-29T11:56:35;10.40;99.90
6252;DHT22;3159;52.414;9.784;2023-12-29T11:59:18;10.40;99.90
6252;DHT22;3159;52.414;9.784;2023-12-29T12:01:51;10.50;99.90
6252;DHT22;3159;52.414;9.784;2023-12-29T12:04:35;10.50;99.90
6252;DHT22;3159;52.414;9.784;2023-12-29T12:07:02;10.40;99.90
6252;DHT22;3159;52.414;9.784;2023-12-29T12:09:30;10.40;99.90
6252;DHT22;3159;52.414;9.784;2023-12-29T12:11:57;10.50;99.90
6252;DHT22;3159;52.414;9.784;2023-12-29T12:14:50;10.50;99.90
6252;DHT22;3159;52.414;9.784;2023-12-29T12:17:28;10.60;99.90
6252;DHT22;3159;52.414;9.784;2023-12-29T12:19:59;10.60;99.90
6252;DHT22;3159;52.414;9.784;2023-12-29T12:22:30;10.60;99.90
6252;DHT22;3159;52.414;9.784;2023-12-29T12:24:59;10.60;99.90
6252;DHT22;3159;52.414;9.784;2023-12-29T12:27:27;10.70;99.90
6252;DHT22;3159;52.414;9.784;2023-12-29T12:29:57;10.70;99.90
6252;DHT22;3159;52.414;9.784;2023-12-29T12:32:26;10.70;99.90
6252;DHT22;3159;52.414;9.784;2023-12-29T12:34:53;10.70;99.90
6252;DHT22;3159;52.414;9.784;2023-12-29T12:37:21;10.70;99.90
6252;DHT22;3159;52.414;9.784;2023-12-29T12:39:48;10.70;99.90
6252;DHT22;3159;52.414;9.784;2023-12-29T12:42:16;10.70;99.90
6252;DHT22;3159;52.414;9.784;2023-12-29T12:44:48;10.80;99.90
6252;DHT22;3159;52.414;9.784;2023-12-29T12:47:25;10.70;99.90
6252;DHT22;3159;52.414;9.784;2023-12-29T12:49:53;10.70;99.90
6252;DHT22;3159;52.414;9.784;2023-12-29T12:52:19;10.80;99.90
6252;DHT22;3159;52.414;9.784;2023-12-29T12:54:47;10.80;99.90
6252;DHT22;3159;52.414;9.784;2023-12-29T12:57:19;10.80;99.90
6252;DHT22;3159;52.414;9.784;2023-12-29T12:59:46;10.80;99.90
6252;DHT22;3159;52.414;9.784;2023-12-29T13:02:14;10.80;99.90
6252;DHT22;3159;52.414;9.784;2023-12-29T13:04:43;10.80;99.90
6252;DHT22;3159;52.414;9.784;2023-12-29T13:07:10;10.80;99.90
6252;DHT22;3159;52.414;9.784;2023-12-29T13:09:37;10.70;99.90
6252;DHT22;3159;52.414;9.784;2023-12-29T13:12:10;10.80;99.90
6252;DHT22;3159;52.414;9.784;2023-12-29T13:14:38;10.80;99.90
6252;DHT22;3159;52.414;9.784;2023-12-29T13:17:08;10.70;99.90
6252;DHT22;3159;52.414;9.784;2023-12-29T13:19:37;10.70;99.90
6252;DHT22;3159;52.414;9.784;2023-12-29T13:22:09;10.70;99.90
6252;DHT22;3159;52.414;9.784;2023-12-29T13:24:42;10.80;99.90
6252;DHT22;3159;52.414;9.784;2023-12-29T13:27:11;10.70;99.90
6252;DHT22;3159;52.414;9.784;2023-12-29T13:29:39;10.80;99.90
6252;DHT22;3159;52.414;9.784;2023-12-29T13:32:10;10.80;99.90
6252;DHT22;3159;52.414;9.784;2023-12-29T13:34:50;10.80;99.90
6252;DHT22;3159;52.414;9.784;2023-12-29T13:37:24;10.80;99.90
6252;DHT22;3159;52.414;9.784;2023-12-29T13:39:55;10.80;99.90
6252;DHT22;3159;52.414;9.784;2023-12-29T13:42:26;10.80;99.90
6252;DHT22;3159;52.414;9.784;2023-12-29T13:44:56;10.80;99.90
6252;DHT22;3159;52.414;9.784;2023-12-29T13:47:27;10.80;99.90
6252;DHT22;3159;52.414;9.784;2023-12-29T13:49:54;10.80;99.90
6252;DHT22;3159;52.414;9.784;2023-12-29T13:52:22;10.80;99.90
6252;DHT22;3159;52.414;9.784;2023-12-29T13:54:49;10.80;99.90
6252;DHT22;3159;52.414;9.784;2023-12-29T13:57:18;10.80;99.90
6252;DHT22;3159;52.414;9.784;2023-12-29T13:59:45;10.90;99.90
6252;DHT22;3159;52.414;9.784;2023-12-29T14:02:26;10.90;99.90
6252;DHT22;3159;52.414;9.784;2023-12-29T14:05:18;10.80;99.90
6252;DHT22;3159;52.414;9.784;2023-12-29T14:07:52;10.80;99.90
6252;DHT22;3159;52.414;9.784;2023-12-29T14:10:20;10.90;99.90
6252;DHT22;3159;52.414;9.784;2023-12-29T14:12:47;10.80;99.90
6252;DHT22;3159;52.414;9.784;2023-12-29T14:15:14;10.80;99.90
6252;DHT22;3159;52.414;9.784;2023-12-29T14:17:41;10.80;99.90
6252;DHT22;3159;52.414;9.784;2023-12-29T14:20:09;10.80;99.90
6252;DHT22;3159;52.414;9.784;2023-12-29T14:22:36;10.80;99.90
6252;DHT22;3159;52.414;9.784;2023-12-29T14:25:07;10.90;99.90
6252;DHT22;3159;52.414;9.784;2023-12-29T14:27:35;10.90;99.90
6252;DHT22;3159;52.414;9.784;2023-12-29T14:30:17;10.90;99.90
6252;DHT22;3159;52.414;9.784;2023-12-29T14:32:45;10.90;99.90
6252;DHT22;3159;52.414;9.784;2023-12-29T14:35:12;10.80;99.90
6252;DHT22;3159;52.414;9.784;2023-12-29T14:37:39;10.80;99.90
6252;DHT22;3159;52.414;9.784;2023-12-29T14:40:11;10.80;99.90
6252;DHT22;3159;52.414;9.784;2023-12-29T14:42:39;10.80;99.90
6252;DHT22;3159;52.414;9.784;2023-12-29T14:45:07;10.90;99.90
6252;DHT22;3159;52.414;9.784;2023-12-29T14:47:34;10.90;99.90
6252;DHT22;3159;52.414;9.784;2023-12-29T14:50:02;10.80;99.90
6252;DHT22;3159;52.414;9.784;2023-12-29T14:52:29;10.90;99.90
6252;DHT22;3159;52.414;9.784;2023-12-29T14:54:56;10.90;99.90
6252;DHT22;3159;52.414;9.784;2023-12-29T14:57:25;10.90;99.90
6252;DHT22;3159;52.414;9.784;2023-12-29T14:59:52;10.90;99.90
6252;DHT22;3159;52.414;9.784;2023-12-29T15:02:19;10.80;99.90
6252;DHT22;3159;52.414;9.784;2023-12-29T15:04:46;10.90;99.90
6252;DHT22;3159;52.414;9.784;2023-12-29T15:07:14;10.90;99.90
6252;DHT22;3159;52.414;9.784;2023-12-29T15:09:41;10.80;99.90
6252;DHT22;3159;52.414;9.784;2023-12-29T15:12:09;10.80;99.90
6252;DHT22;3159;52.414;9.784;2023-12-29T15:14:38;10.80;99.90
6252;DHT22;3159;52.414;9.784;2023-12-29T15:17:05;10.80;99.90
6252;DHT22;3159;52.414;9.784;2023-12-29T15:19:32;10.80;99.90
6252;DHT22;3159;52.414;9.784;2023-12-29T15:21:59;10.70;99.90
6252;DHT22;3159;52.414;9.784;2023-12-29T15:24:26;10.70;99.90
6252;DHT22;3159;52.414;9.784;2023-12-29T15:26:53;10.70;99.90
6252;DHT22;3159;52.414;9.784;2023-12-29T15:29:20;10.70;99.90
6252;DHT22;3159;52.414;9.784;2023-12-29T15:31:50;10.70;99.90
6252;DHT22;3159;52.414;9.784;2023-12-29T15:34:17;10.70;99.90
6252;DHT22;3159;52.414;9.784;2023-12-29T15:36:44;10.80;99.90
6252;DHT22;3159;52.414;9.784;2023-12-29T15:39:12;10.70;99.90
6252;DHT22;3159;52.414;9.784;2023-12-29T15:41:40;10.70;99.90
6252;DHT22;3159;52.414;9.784;2023-12-29T15:44:07;10.70;99.90
6252;DHT22;3159;52.414;9.784;2023-12-29T15:46:34;10.70;99.90
6252;DHT22;3159;52.414;9.784;2023-12-29T15:49:02;10.70;99.90
6252;DHT22;3159;52.414;9.784;2023-12-29T15:51:30;10.70;99.90
6252;DHT22;3159;52.414;9.784;2023-12-29T15:53:57;10.70;99.90
6252;DHT22;3159;52.414;9.784;2023-12-29T15:56:24;10.70;99.90
6252;DHT22;3159;52.414;9.784;2023-12-29T15:58:51;10.70;99.90
6252;DHT22;3159;52.414;9.784;2023-12-29T16:01:21;10.70;99.90
6252;DHT22;3159;52.414;9.784;2023-12-29T16:03:50;10.70;99.90
6252;DHT22;3159;52.414;9.784;2023-12-29T16:06:20;10.70;99.90
6252;DHT22;3159;52.414;9.784;2023-12-29T16:08:47;10.70;99.90
6252;DHT22;3159;52.414;9.784;2023-12-29T16:11:18;10.70;99.90